Mammoth Cave National Park, Kentucky
Current Conditions -  °F | °C
As of 8:35 AM on Friday 28 Nov 2014 (Local Time) from KGLW Reporting Station
Clear Clear  
Wind Chill: 24°   Ceiling: Unl
Heat Index: 30°   Visibility: 10mi
Dew Point: 20°   Wind: 6mph
Humidity: 68%   Direction: 160°SSE
Pressure: 30.42"   Gusts: NA
Location:  37.2519°N, 86.1739°W
Report Text: KGLW 281435Z AUTO 16005KT 10SM CLR M01/M06 A3042 RMK AO2 T10121064
Loading
Personal Weather Stations






























Interactive Weather Map New forecast layout! Learn more

10-Day Weather Forecast

Advertisements
Track Severe Weather on mobile